createdAt,value
2018-10-21T00:00:14.036Z,77.59
2018-10-21T00:02:44.158Z,76.22
2018-10-21T00:05:14.085Z,74.83
2018-10-21T00:07:43.862Z,75.53
2018-10-21T00:10:14.071Z,76.10
2018-10-21T00:12:44.176Z,79.04
2018-10-21T00:15:14.339Z,78.07
2018-10-21T00:17:44.864Z,77.77
2018-10-21T00:20:16.627Z,77.91
2018-10-21T00:22:46.725Z,79.18
2018-10-21T00:25:16.596Z,79.50
2018-10-21T00:27:46.459Z,79.51
2018-10-21T00:30:16.299Z,79.81
2018-10-21T00:32:48.159Z,79.45
2018-10-21T00:35:18.391Z,78.17
2018-10-21T00:37:48.164Z,78.36
2018-10-21T00:40:17.895Z,79.03
2018-10-21T00:42:48.312Z,78.76
2018-10-21T00:45:18.158Z,79.92
2018-10-21T00:47:48.000Z,80.99
2018-10-21T00:50:18.239Z,80.44
2018-10-21T00:52:48.312Z,79.56
2018-10-21T00:55:18.098Z,78.75
2018-10-21T00:57:47.831Z,81.07
2018-10-21T01:00:18.687Z,81.50
2018-10-21T01:02:49.016Z,81.39
2018-10-21T01:05:18.978Z,80.31
2018-10-21T01:07:48.859Z,79.67
2018-10-21T01:10:18.979Z,78.15
2018-10-21T01:12:48.846Z,77.14
2018-10-21T01:15:19.009Z,77.62
2018-10-21T01:17:48.780Z,76.94
2018-10-21T01:20:18.469Z,75.72
2018-10-21T01:22:49.117Z,78.63
2018-10-21T01:25:19.227Z,78.95
2018-10-21T01:27:49.173Z,79.83
2018-10-21T01:30:18.933Z,80.43
2018-10-21T01:32:49.028Z,80.69
2018-10-21T01:35:18.856Z,79.21
2018-10-21T01:37:48.844Z,79.61
2018-10-21T01:40:41.739Z,79.07
2018-10-21T01:43:13.497Z,79.13
2018-10-21T01:45:43.332Z,77.74
2018-10-21T01:48:14.573Z,76.79
2018-10-21T01:50:44.382Z,76.91
2018-10-21T01:53:15.144Z,76.26
2018-10-21T01:55:44.956Z,76.89
2018-10-21T01:58:14.778Z,76.43
2018-10-21T02:00:45.101Z,78.11
2018-10-21T02:03:14.906Z,80.63
2018-10-21T02:05:45.744Z,79.32
2018-10-21T02:08:15.690Z,77.81
2018-10-21T02:10:45.518Z,76.52
2018-10-21T02:13:15.418Z,77.95
2018-10-21T02:15:45.334Z,80.08
2018-10-21T02:18:15.123Z,81.29
2018-10-21T02:20:44.859Z,81.48
2018-10-21T02:23:14.745Z,81.65
2018-10-21T02:25:44.953Z,80.14
2018-10-21T02:28:14.947Z,77.91
2018-10-21T02:30:44.677Z,77.18
2018-10-21T02:33:14.601Z,80.44
2018-10-21T02:35:44.290Z,79.08
2018-10-21T02:38:17.260Z,78.95
2018-10-21T02:41:56.451Z,78.23
2018-10-21T02:44:26.344Z,78.39
2018-10-21T02:46:57.398Z,80.53
2018-10-21T02:49:27.183Z,81.04
2018-10-21T02:52:02.094Z,81.67
2018-10-21T02:54:32.729Z,82.07
2018-10-21T02:57:02.905Z,82.41
2018-10-21T02:59:32.970Z,81.71
2018-10-21T03:02:02.780Z,80.47
2018-10-21T03:04:32.617Z,80.54
2018-10-21T03:07:02.415Z,81.51
2018-10-21T03:09:33.137Z,82.28
2018-10-21T03:12:03.206Z,82.27
2018-10-21T03:14:34.090Z,82.60
2018-10-21T03:17:03.960Z,81.32
2018-10-21T03:19:33.920Z,81.18
2018-10-21T03:22:03.890Z,82.65
2018-10-21T03:24:33.873Z,82.15
2018-10-21T03:27:04.155Z,82.10
2018-10-21T03:29:34.224Z,80.69
2018-10-21T03:32:04.576Z,81.32
2018-10-21T03:34:34.381Z,81.56
2018-10-21T03:37:04.435Z,79.76
2018-10-21T03:39:34.344Z,78.54
2018-10-21T03:42:04.359Z,78.23
2018-10-21T03:44:34.104Z,77.25
2018-10-21T03:47:04.102Z,79.55
2018-10-21T03:49:34.053Z,80.64
2018-10-21T03:52:04.122Z,81.44
2018-10-21T03:54:34.255Z,79.79
2018-10-21T03:57:04.163Z,79.62
2018-10-21T03:59:34.133Z,78.51
2018-10-21T04:02:04.088Z,78.96
2018-10-21T04:04:34.112Z,79.81
2018-10-21T04:07:04.169Z,80.24
2018-10-21T04:09:33.960Z,81.69
2018-10-21T04:12:04.013Z,82.37
2018-10-21T04:14:34.521Z,81.98
2018-10-21T04:17:05.119Z,80.87
2018-10-21T04:19:34.928Z,80.62
2018-10-21T04:22:05.019Z,82.09
2018-10-21T04:24:34.921Z,81.32
2018-10-21T04:27:05.038Z,80.58
2018-10-21T04:29:34.861Z,80.74
2018-10-21T04:32:04.976Z,78.98
2018-10-21T04:34:34.891Z,79.89
2018-10-21T04:39:28.203Z,81.53
2018-10-21T04:41:57.927Z,82.46
2018-10-21T04:44:27.654Z,83.33
2018-10-21T04:46:57.465Z,83.05
2018-10-21T04:49:27.258Z,83.68
2018-10-21T04:51:57.381Z,83.03
2018-10-21T04:54:29.341Z,81.52
2018-10-21T04:56:59.414Z,82.68
2018-10-21T04:59:29.531Z,82.82
2018-10-21T05:01:59.571Z,83.60
2018-10-21T05:04:29.725Z,83.42
2018-10-21T05:06:59.835Z,83.17
2018-10-21T05:09:29.656Z,83.32
2018-10-21T05:11:59.514Z,82.29
2018-10-21T05:14:29.421Z,80.44
2018-10-21T05:16:59.491Z,79.40
2018-10-21T05:22:09.903Z,81.30
2018-10-21T05:24:39.922Z,81.89
2018-10-21T05:27:10.028Z,81.48
2018-10-21T05:29:39.988Z,82.29
2018-10-21T05:32:09.696Z,83.03
2018-10-21T05:34:39.602Z,81.39
2018-10-21T05:37:09.598Z,80.36
2018-10-21T05:39:39.313Z,78.62
2018-10-21T05:42:09.087Z,78.86
2018-10-21T05:44:39.175Z,78.55
2018-10-21T05:47:09.011Z,80.22
2018-10-21T05:49:39.029Z,82.08
2018-10-21T05:52:09.140Z,82.48
2018-10-21T05:54:42.261Z,83.02
2018-10-21T05:57:11.983Z,81.82
2018-10-21T05:59:41.750Z,82.39
2018-10-21T06:02:11.860Z,81.28
2018-10-21T06:04:41.682Z,80.25
2018-10-21T06:07:11.488Z,80.98
2018-10-21T06:09:41.497Z,81.57
2018-10-21T06:12:11.501Z,80.59
2018-10-21T06:14:41.542Z,80.89
2018-10-21T06:17:18.132Z,82.29
2018-10-21T06:19:51.645Z,82.14
2018-10-21T06:22:21.720Z,83.45
2018-10-21T06:24:52.116Z,83.52
2018-10-21T06:27:21.967Z,83.21
2018-10-21T06:29:52.125Z,83.73
2018-10-21T06:32:21.923Z,83.74
2018-10-21T06:34:51.918Z,83.85
2018-10-21T06:37:22.494Z,84.29
2018-10-21T06:39:52.604Z,83.80
2018-10-21T06:42:22.404Z,83.31
2018-10-21T06:44:52.374Z,83.09
2018-10-21T06:47:22.506Z,83.71
2018-10-21T06:49:52.337Z,83.62
2018-10-21T06:52:22.163Z,82.84
2018-10-21T06:54:52.832Z,82.52
2018-10-21T06:57:23.373Z,82.17
2018-10-21T06:59:53.154Z,81.25
2018-10-21T07:02:23.316Z,80.70
2018-10-21T07:04:53.380Z,79.45
2018-10-21T07:07:23.172Z,79.58
2018-10-21T07:09:52.875Z,78.98
2018-10-21T07:12:22.912Z,78.22
2018-10-21T07:14:52.617Z,78.40
2018-10-21T07:17:22.680Z,78.31
2018-10-21T07:19:52.404Z,79.39
2018-10-21T07:22:22.455Z,83.67
2018-10-21T07:24:52.701Z,82.17
2018-10-21T07:27:22.490Z,84.08
2018-10-21T07:29:52.213Z,84.44
2018-10-21T07:32:21.950Z,83.62
2018-10-21T07:34:52.133Z,85.58
2018-10-21T07:37:22.149Z,87.65
2018-10-21T07:39:52.155Z,86.61
2018-10-21T07:42:22.440Z,86.52
2018-10-21T07:44:52.607Z,85.94
2018-10-21T07:47:22.408Z,85.44
2018-10-21T07:49:52.588Z,86.73
2018-10-21T07:52:22.625Z,86.27
2018-10-21T07:54:52.880Z,85.57
2018-10-21T07:57:22.843Z,85.66
2018-10-21T07:59:53.060Z,86.45
2018-10-21T08:02:22.986Z,85.55
2018-10-21T08:04:52.870Z,86.19
2018-10-21T08:07:39.248Z,87.08
2018-10-21T08:10:09.234Z,85.63
2018-10-21T08:12:39.163Z,85.07
2018-10-21T08:15:08.975Z,85.75
2018-10-21T08:17:38.929Z,84.58
2018-10-21T08:20:08.941Z,84.78
2018-10-21T08:22:38.934Z,84.34
2018-10-21T08:25:08.789Z,84.14
2018-10-21T08:27:39.036Z,85.83
2018-10-21T08:30:08.979Z,86.04
2018-10-21T08:32:38.920Z,84.42
2018-10-21T08:35:08.871Z,85.96
2018-10-21T08:37:38.638Z,83.81
2018-10-21T08:40:08.976Z,83.64
2018-10-21T08:42:38.767Z,84.05
2018-10-21T08:45:09.124Z,83.43
2018-10-21T08:47:39.181Z,84.64
2018-10-21T08:50:09.572Z,83.67
2018-10-21T08:52:39.886Z,83.58
2018-10-21T08:55:11.210Z,84.75
2018-10-21T08:57:41.453Z,84.67
2018-10-21T09:00:16.400Z,84.43
2018-10-21T09:02:46.753Z,83.69
2018-10-21T09:05:18.858Z,83.15
2018-10-21T09:07:51.222Z,83.91
2018-10-21T09:10:21.393Z,84.64
2018-10-21T09:12:51.199Z,83.68
2018-10-21T09:15:22.267Z,83.41
2018-10-21T09:17:52.077Z,83.83
2018-10-21T09:20:21.759Z,83.98
2018-10-21T09:22:51.855Z,85.76
2018-10-21T09:25:21.808Z,83.93
2018-10-21T09:27:51.923Z,84.35
2018-10-21T09:30:21.803Z,83.81
2018-10-21T09:32:51.931Z,85.22
2018-10-21T09:35:21.886Z,82.68
2018-10-21T09:37:51.801Z,84.14
2018-10-21T09:40:21.861Z,79.59
2018-10-21T09:42:51.636Z,81.36
2018-10-21T09:45:22.208Z,80.28
2018-10-21T09:47:52.271Z,81.49
2018-10-21T09:50:22.357Z,83.08
2018-10-21T09:52:52.349Z,81.09
2018-10-21T09:55:23.736Z,83.02
2018-10-21T09:57:53.834Z,78.73
2018-10-21T10:00:28.904Z,76.09
2018-10-21T10:03:03.496Z,76.15
2018-10-21T10:05:33.797Z,74.24
2018-10-21T10:08:03.869Z,73.70
2018-10-21T10:10:33.806Z,73.00
2018-10-21T10:13:03.818Z,74.00
2018-10-21T10:15:33.899Z,76.08
2018-10-21T10:18:03.759Z,73.65
2018-10-21T10:20:33.571Z,72.30
2018-10-21T10:23:03.344Z,71.20
2018-10-21T10:25:33.855Z,69.77
2018-10-21T10:28:03.729Z,70.01
2018-10-21T10:30:33.782Z,70.58
2018-10-21T10:33:03.571Z,71.63
2018-10-21T10:35:33.612Z,70.34
2018-10-21T10:38:03.934Z,70.81
2018-10-21T10:40:34.137Z,71.39
2018-10-21T10:43:04.246Z,69.67
2018-10-21T10:45:34.080Z,65.09
2018-10-21T10:48:04.129Z,65.76
2018-10-21T10:50:33.947Z,65.36
2018-10-21T10:53:04.074Z,66.74
2018-10-21T10:55:39.387Z,67.55
2018-10-21T10:58:09.374Z,65.77
2018-10-21T11:00:39.233Z,66.82
2018-10-21T11:03:09.090Z,65.64
2018-10-21T11:05:39.063Z,63.23
2018-10-21T11:08:09.150Z,66.49
2018-10-21T11:10:39.208Z,66.60
2018-10-21T11:13:09.100Z,62.62
2018-10-21T11:15:39.031Z,64.28
2018-10-21T11:18:10.746Z,64.83
2018-10-21T11:20:40.734Z,65.12
2018-10-21T11:23:10.744Z,66.43
2018-10-21T11:25:40.891Z,65.42
2018-10-21T11:28:10.769Z,64.32
2018-10-21T11:30:40.780Z,64.02
2018-10-21T11:33:10.775Z,64.42
2018-10-21T11:35:40.808Z,64.44
2018-10-21T11:38:10.751Z,64.13
2018-10-21T11:40:40.767Z,61.31
2018-10-21T11:43:10.934Z,59.73
2018-10-21T11:45:40.764Z,62.09
2018-10-21T11:48:10.545Z,62.58
2018-10-21T11:50:40.272Z,63.90
2018-10-21T11:53:10.091Z,59.56
2018-10-21T11:55:41.587Z,60.08
2018-10-21T11:58:14.081Z,61.66
2018-10-21T12:00:45.842Z,60.79
2018-10-21T12:03:15.857Z,61.10
2018-10-21T12:05:45.795Z,60.44
2018-10-21T12:08:15.828Z,60.26
2018-10-21T12:10:45.665Z,61.32
2018-10-21T12:13:15.556Z,60.01
2018-10-21T12:15:45.344Z,59.59
2018-10-21T12:18:15.328Z,60.90
2018-10-21T12:20:45.394Z,58.50
2018-10-21T12:23:15.217Z,59.36
2018-10-21T12:25:53.063Z,61.34
2018-10-21T12:28:22.964Z,61.42
2018-10-21T12:30:52.997Z,59.84
2018-10-21T12:33:37.739Z,55.94
2018-10-21T12:36:07.827Z,56.20
2018-10-21T12:38:37.877Z,55.29
2018-10-21T12:41:10.269Z,55.32
2018-10-21T12:43:40.797Z,57.12
2018-10-21T12:46:10.726Z,54.92
2018-10-21T12:48:40.539Z,55.99
2018-10-21T12:51:10.235Z,54.08
2018-10-21T12:53:40.439Z,54.67
2018-10-21T12:56:10.719Z,53.59
2018-10-21T12:58:40.928Z,57.38
2018-10-21T13:01:10.828Z,54.11
2018-10-21T13:03:40.641Z,57.61
2018-10-21T13:06:10.718Z,57.15
2018-10-21T13:08:40.811Z,55.43
2018-10-21T13:11:10.628Z,56.95
2018-10-21T13:13:40.522Z,54.24
2018-10-21T13:16:10.408Z,53.88
2018-10-21T13:18:40.514Z,53.24
2018-10-21T13:21:10.776Z,55.97
2018-10-21T13:23:40.763Z,53.15
2018-10-21T13:26:10.719Z,55.68
2018-10-21T13:28:40.773Z,54.57
2018-10-21T13:31:10.661Z,52.23
2018-10-21T13:33:40.386Z,52.91
2018-10-21T13:36:10.518Z,55.40
2018-10-21T13:38:41.568Z,53.76
2018-10-21T13:41:28.100Z,54.82
2018-10-21T13:43:59.494Z,52.17
2018-10-21T13:46:30.717Z,51.91
2018-10-21T13:49:00.467Z,52.73
2018-10-21T13:51:30.316Z,54.71
2018-10-21T13:54:00.513Z,55.18
2018-10-21T13:56:32.600Z,53.82
2018-10-21T13:59:02.917Z,51.97
2018-10-21T14:01:33.004Z,54.15
2018-10-21T14:04:04.094Z,55.43
2018-10-21T14:06:34.103Z,55.63
2018-10-21T14:09:08.361Z,50.32
2018-10-21T14:11:39.932Z,54.39
2018-10-21T14:14:11.990Z,53.69
2018-10-21T14:16:42.297Z,54.48
2018-10-21T14:19:12.236Z,55.45
2018-10-21T14:21:42.499Z,54.14
2018-10-21T14:24:12.898Z,54.37
2018-10-21T14:26:42.838Z,55.24
2018-10-21T14:29:13.732Z,54.83
2018-10-21T14:31:48.014Z,51.89
2018-10-21T14:34:59.544Z,52.23
2018-10-21T14:37:48.178Z,54.49
2018-10-21T14:40:18.111Z,53.16
2018-10-21T14:43:07.438Z,54.16
2018-10-21T14:45:37.971Z,53.86
2018-10-21T14:54:13.138Z,52.98
2018-10-21T14:57:07.329Z,51.45
2018-10-21T14:59:37.503Z,51.36
2018-10-21T15:02:35.596Z,52.21
2018-10-21T15:05:08.226Z,52.57
2018-10-21T15:07:58.123Z,51.84
2018-10-21T15:10:28.018Z,53.68
2018-10-21T15:12:59.312Z,55.63
2018-10-21T15:15:29.942Z,54.75
2018-10-21T15:18:12.464Z,53.67
2018-10-21T15:24:03.413Z,52.38
2018-10-21T15:29:33.711Z,55.26
2018-10-21T15:38:22.947Z,56.39
2018-10-21T15:44:09.336Z,56.34
2018-10-21T15:46:39.553Z,57.45
2018-10-21T15:49:10.844Z,58.25
2018-10-21T15:51:41.020Z,58.68
2018-10-21T15:54:11.224Z,58.69
2018-10-21T15:56:41.486Z,58.91
2018-10-21T15:59:35.008Z,59.12
2018-10-21T16:05:03.761Z,60.32
2018-10-21T16:07:46.908Z,59.58
2018-10-21T16:10:16.754Z,60.03
2018-10-21T16:12:46.742Z,61.18
2018-10-21T16:21:17.316Z,61.29
2018-10-21T16:23:47.353Z,61.91
2018-10-21T16:26:17.397Z,63.04
2018-10-21T16:31:56.263Z,63.36
2018-10-21T16:37:26.311Z,63.41
2018-10-21T16:40:09.198Z,63.73
2018-10-21T16:42:39.775Z,63.63
2018-10-21T16:45:34.497Z,62.96
2018-10-21T16:48:16.837Z,63.23
2018-10-21T16:57:04.968Z,65.23
2018-10-21T16:59:35.153Z,65.46
2018-10-21T17:02:05.534Z,65.10
2018-10-21T17:05:04.127Z,64.74
2018-10-21T17:07:34.280Z,64.64
2018-10-21T17:13:33.814Z,65.98
2018-10-21T17:16:04.017Z,67.24
2018-10-21T17:18:34.092Z,66.29
2018-10-21T17:24:08.167Z,66.85
2018-10-21T17:26:38.264Z,66.58
2018-10-21T17:29:08.329Z,65.95
2018-10-21T17:35:03.799Z,65.15
2018-10-21T17:41:20.300Z,68.39
2018-10-21T17:43:50.464Z,68.16
2018-10-21T17:46:20.628Z,67.80
2018-10-21T17:48:54.753Z,67.46
2018-10-21T17:51:24.840Z,68.13
2018-10-21T17:53:55.025Z,68.04
2018-10-21T17:56:41.979Z,67.49
2018-10-21T17:59:12.478Z,66.79
2018-10-21T18:02:05.599Z,66.75
2018-10-21T18:04:47.913Z,67.34
2018-10-21T18:07:21.401Z,67.93
2018-10-21T18:10:07.518Z,68.87
2018-10-21T18:12:37.893Z,70.46
2018-10-21T18:15:33.845Z,70.05
2018-10-21T18:18:03.958Z,67.58
2018-10-21T18:20:37.460Z,68.40
2018-10-21T18:23:07.473Z,68.89
2018-10-21T18:28:37.260Z,70.46
2018-10-21T18:34:25.628Z,70.01
2018-10-21T18:36:55.819Z,69.00
2018-10-21T18:39:43.528Z,70.43
2018-10-21T18:42:18.778Z,72.14
2018-10-21T18:44:48.863Z,71.46
2018-10-21T18:50:18.683Z,68.40
2018-10-21T18:53:00.658Z,67.91
2018-10-21T18:55:59.260Z,68.45
2018-10-21T18:58:29.371Z,68.67
2018-10-21T19:46:31.009Z,70.87
2018-10-21T19:49:01.034Z,70.20
2018-10-21T19:51:31.052Z,70.11
2018-10-21T19:54:01.208Z,69.74
2018-10-21T19:56:53.446Z,70.17
2018-10-21T19:59:51.791Z,72.49
2018-10-21T20:02:50.984Z,73.88
2018-10-21T20:14:45.963Z,74.78
2018-10-21T20:17:16.204Z,76.74
2018-10-21T20:19:46.427Z,76.11
2018-10-21T20:25:16.720Z,71.94
2018-10-21T20:28:02.750Z,71.49
2018-10-21T20:30:33.693Z,73.49
2018-10-21T20:33:03.694Z,74.40
2018-10-21T20:38:33.912Z,74.92
2018-10-21T20:41:03.948Z,75.19
2018-10-21T20:46:34.333Z,72.24
2018-10-21T20:55:04.706Z,75.66
2018-10-21T21:00:34.508Z,75.00
2018-10-21T21:03:32.597Z,74.01
2018-10-21T21:06:34.644Z,73.65
2018-10-21T21:15:05.273Z,71.87
2018-10-21T21:17:35.252Z,72.39
2018-10-21T21:20:05.292Z,73.51
2018-10-21T21:22:35.241Z,76.24
2018-10-21T21:25:07.288Z,76.24
2018-10-21T21:27:37.519Z,76.28
2018-10-21T21:30:08.954Z,76.25
2018-10-21T21:32:38.921Z,78.01
2018-10-21T21:38:32.886Z,74.40
2018-10-21T21:41:06.466Z,73.21
2018-10-21T21:43:36.569Z,73.05
2018-10-21T21:46:07.812Z,72.83
2018-10-21T21:48:50.958Z,73.76
2018-10-21T21:51:21.141Z,74.75
2018-10-21T21:53:56.759Z,75.34
2018-10-21T21:59:14.367Z,76.11
2018-10-21T22:01:54.284Z,75.31
2018-10-21T22:04:24.693Z,73.75
2018-10-21T22:06:55.465Z,72.68
2018-10-21T22:09:26.204Z,72.70
2018-10-21T22:14:57.693Z,76.74
2018-10-21T22:17:29.372Z,76.00
2018-10-21T22:20:00.465Z,76.55
2018-10-21T22:31:41.408Z,76.40
2018-10-21T22:34:11.604Z,77.53
2018-10-21T22:36:41.714Z,77.61
2018-10-21T22:39:11.765Z,78.18
2018-10-21T22:41:41.765Z,75.98
2018-10-21T22:50:22.809Z,74.03
2018-10-21T22:52:52.976Z,75.12
2018-10-21T22:55:23.140Z,76.50
2018-10-21T22:57:53.339Z,77.30
2018-10-21T23:03:59.697Z,78.39
2018-10-21T23:06:30.334Z,76.70
2018-10-21T23:09:02.397Z,75.03
2018-10-21T23:11:33.117Z,78.94
2018-10-21T23:14:03.736Z,77.91
2018-10-21T23:16:34.966Z,75.65
2018-10-21T23:22:04.336Z,74.39
2018-10-21T23:24:34.868Z,73.49
2018-10-21T23:27:05.267Z,73.15
2018-10-21T23:29:53.987Z,74.24
2018-10-21T23:32:24.540Z,74.52
2018-10-21T23:34:54.645Z,75.03
2018-10-21T23:37:24.870Z,77.38
2018-10-21T23:39:55.396Z,77.87
2018-10-21T23:42:25.829Z,79.41
2018-10-21T23:44:56.061Z,78.34
2018-10-21T23:47:30.473Z,78.46
2018-10-21T23:50:01.032Z,78.99
2018-10-21T23:52:31.452Z,80.75
2018-10-21T23:55:20.944Z,80.70
2018-10-21T23:57:59.131Z,78.04
